createdAt,value
2017-03-24T00:00:58.415Z,0
2017-03-24T00:01:58.170Z,0
2017-03-24T00:02:58.526Z,0
2017-03-24T00:03:58.583Z,0
2017-03-24T00:04:58.631Z,0
2017-03-24T00:05:58.728Z,0
2017-03-24T00:06:58.736Z,0
2017-03-24T00:07:58.798Z,0
2017-03-24T00:08:58.855Z,0
2017-03-24T00:09:58.912Z,0
2017-03-24T00:10:58.962Z,0
2017-03-24T00:11:59.015Z,0
2017-03-24T00:12:59.066Z,0
2017-03-24T00:13:59.117Z,0
2017-03-24T00:14:59.176Z,0
2017-03-24T00:15:59.222Z,0
2017-03-24T00:16:59.290Z,0
2017-03-24T00:17:59.339Z,0
2017-03-24T00:18:59.387Z,0
2017-03-24T00:19:59.445Z,0
2017-03-24T00:20:59.495Z,0
2017-03-24T00:21:59.552Z,0
2017-03-24T00:22:59.604Z,0
2017-03-24T00:23:59.659Z,0
2017-03-24T00:24:59.713Z,0
2017-03-24T00:25:59.784Z,0
2017-03-24T00:26:59.819Z,0
2017-03-24T00:27:59.874Z,0
2017-03-24T00:28:59.925Z,0
2017-03-24T00:29:59.979Z,0
2017-03-24T00:31:00.034Z,0
2017-03-24T00:32:00.087Z,0
2017-03-24T00:33:00.141Z,0
2017-03-24T00:34:00.206Z,0
2017-03-24T00:35:00.249Z,0
2017-03-24T00:35:59.997Z,0
2017-03-24T00:37:00.356Z,0
2017-03-24T00:38:00.108Z,0
2017-03-24T00:39:00.158Z,0
2017-03-24T00:40:00.213Z,0
2017-03-24T00:41:00.272Z,0
2017-03-24T00:42:00.625Z,0
2017-03-24T00:43:00.679Z,0
2017-03-24T00:44:00.730Z,0
2017-03-24T00:45:00.486Z,0
2017-03-24T00:46:00.538Z,0
2017-03-24T00:47:00.893Z,0
2017-03-24T00:48:00.647Z,0
2017-03-24T00:49:01.005Z,0
2017-03-24T00:50:01.061Z,0
2017-03-24T00:51:01.123Z,0
2017-03-24T00:52:01.169Z,0
2017-03-24T00:53:01.233Z,0
2017-03-24T00:54:01.275Z,0
2017-03-24T00:55:01.329Z,0
2017-03-24T00:56:01.380Z,0
2017-03-24T00:57:01.434Z,0
2017-03-24T00:58:01.499Z,0
2017-03-24T00:59:01.542Z,0
2017-03-24T01:00:01.597Z,0
2017-03-24T01:01:01.651Z,0
2017-03-24T01:02:01.707Z,0
2017-03-24T01:03:01.759Z,0
2017-03-24T01:04:01.510Z,0
2017-03-24T01:05:01.867Z,0
2017-03-24T01:06:01.957Z,0
2017-03-24T01:07:01.974Z,0
2017-03-24T01:08:02.026Z,0
2017-03-24T01:09:02.085Z,0
2017-03-24T01:10:02.137Z,0
2017-03-24T01:11:02.187Z,0
2017-03-24T01:12:02.243Z,0
2017-03-24T01:13:02.301Z,0
2017-03-24T01:14:02.352Z,0
2017-03-24T01:15:02.415Z,0
2017-03-24T01:16:02.465Z,0
2017-03-24T01:17:02.509Z,0
2017-03-24T01:18:02.568Z,0
2017-03-24T01:19:02.620Z,0
2017-03-24T01:20:02.680Z,0
2017-03-24T01:21:02.723Z,0
2017-03-24T01:22:02.785Z,0
2017-03-24T01:23:02.834Z,0
2017-03-24T01:24:02.588Z,0
2017-03-24T01:25:02.646Z,0
2017-03-24T01:26:02.995Z,0
2017-03-24T01:27:03.061Z,0
2017-03-24T01:28:03.109Z,0
2017-03-24T01:29:03.164Z,0
2017-03-24T01:30:03.222Z,0
2017-03-24T01:31:03.265Z,0
2017-03-24T01:32:03.329Z,0
2017-03-24T01:33:03.377Z,0
2017-03-24T01:34:03.434Z,0
2017-03-24T01:35:03.487Z,0
2017-03-24T01:36:03.542Z,0
2017-03-24T01:37:03.589Z,0
2017-03-24T01:38:03.652Z,0
2017-03-24T01:39:03.703Z,0
2017-03-24T01:40:03.752Z,0
2017-03-24T01:41:03.803Z,0
2017-03-24T01:42:03.865Z,0
2017-03-24T01:43:03.918Z,0
2017-03-24T01:44:03.970Z,0
2017-03-24T01:45:04.024Z,0
2017-03-24T01:46:04.074Z,0
2017-03-24T01:47:04.129Z,0
2017-03-24T01:48:04.184Z,0
2017-03-24T01:49:04.243Z,0
2017-03-24T01:50:04.293Z,0
2017-03-24T01:51:04.350Z,0
2017-03-24T01:52:04.394Z,0
2017-03-24T01:53:04.158Z,0
2017-03-24T01:54:04.508Z,0
2017-03-24T01:55:04.560Z,0
2017-03-24T01:56:04.610Z,0
2017-03-24T01:57:04.671Z,0
2017-03-24T01:58:04.729Z,0
2017-03-24T01:59:04.783Z,0
2017-03-24T02:00:04.834Z,0
2017-03-24T02:01:04.877Z,0
2017-03-24T02:02:04.936Z,0
2017-03-24T02:03:05.044Z,0
2017-03-24T02:04:05.047Z,0
2017-03-24T02:05:05.101Z,0
2017-03-24T02:06:05.154Z,0
2017-03-24T02:07:05.204Z,0
2017-03-24T02:08:05.260Z,0
2017-03-24T02:09:05.315Z,0
2017-03-24T02:10:05.065Z,0
2017-03-24T02:11:05.170Z,0
2017-03-24T02:12:05.475Z,0
2017-03-24T02:13:05.534Z,0
2017-03-24T02:14:05.586Z,0
2017-03-24T02:15:05.636Z,0
2017-03-24T02:16:05.695Z,0
2017-03-24T02:17:05.745Z,0
2017-03-24T02:18:06.006Z,0
2017-03-24T02:19:05.854Z,0
2017-03-24T02:20:05.609Z,0
2017-03-24T02:21:05.962Z,0
2017-03-24T02:22:06.015Z,0
2017-03-24T02:23:05.774Z,0
2017-03-24T02:24:06.121Z,0
2017-03-24T02:25:06.181Z,0
2017-03-24T02:26:06.230Z,0
2017-03-24T02:27:06.283Z,0
2017-03-24T02:28:06.340Z,0
2017-03-24T02:29:06.394Z,0
2017-03-24T02:30:06.446Z,0
2017-03-24T02:31:06.499Z,0
2017-03-24T02:32:06.575Z,0
2017-03-24T02:33:06.603Z,0
2017-03-24T02:34:06.660Z,0
2017-03-24T02:35:06.713Z,0
2017-03-24T02:36:06.771Z,0
2017-03-24T02:37:06.821Z,0
2017-03-24T02:38:06.881Z,0
2017-03-24T02:39:06.931Z,0
2017-03-24T02:40:06.984Z,0
2017-03-24T02:41:07.037Z,0
2017-03-24T02:42:07.096Z,0
2017-03-24T02:43:07.141Z,0
2017-03-24T02:44:07.201Z,0
2017-03-24T02:45:07.251Z,0
2017-03-24T02:46:07.306Z,0
2017-03-24T02:47:07.360Z,0
2017-03-24T02:48:07.409Z,0
2017-03-24T02:49:07.469Z,0
2017-03-24T02:50:07.522Z,0
2017-03-24T02:51:07.575Z,0
2017-03-24T02:52:07.328Z,0
2017-03-24T02:53:07.683Z,0
2017-03-24T02:54:07.740Z,0
2017-03-24T02:55:07.793Z,0
2017-03-24T02:56:07.852Z,0
2017-03-24T02:57:07.904Z,0
2017-03-24T02:58:07.952Z,0
2017-03-24T02:59:08.006Z,0
2017-03-24T03:00:07.457Z,0
2017-03-24T03:01:08.119Z,0
2017-03-24T03:02:08.173Z,0
2017-03-24T03:03:08.226Z,0
2017-03-24T03:04:08.278Z,0
2017-03-24T03:05:08.330Z,0
2017-03-24T03:06:08.391Z,0
2017-03-24T03:07:08.457Z,0
2017-03-24T03:08:08.502Z,0
2017-03-24T03:09:08.548Z,0
2017-03-24T03:10:08.602Z,0
2017-03-24T03:11:08.656Z,0
2017-03-24T03:12:08.708Z,0
2017-03-24T03:13:08.769Z,0
2017-03-24T03:14:08.816Z,0
2017-03-24T03:15:08.567Z,0
2017-03-24T03:16:08.927Z,0
2017-03-24T03:17:08.980Z,0
2017-03-24T03:18:09.036Z,0
2017-03-24T03:19:09.088Z,0
2017-03-24T03:20:09.142Z,0
2017-03-24T03:21:09.195Z,0
2017-03-24T03:22:09.259Z,0
2017-03-24T03:23:09.303Z,0
2017-03-24T03:24:09.361Z,0
2017-03-24T03:25:09.411Z,0
2017-03-24T03:26:09.458Z,0
2017-03-24T03:27:09.514Z,0
2017-03-24T03:28:09.580Z,0
2017-03-24T03:29:09.631Z,0
2017-03-24T03:30:09.674Z,0
2017-03-24T03:31:09.736Z,0
2017-03-24T03:32:09.789Z,0
2017-03-24T03:33:09.850Z,0
2017-03-24T03:34:09.903Z,0
2017-03-24T03:35:09.949Z,0
2017-03-24T03:36:10.007Z,0
2017-03-24T03:37:10.098Z,0
2017-03-24T03:38:10.112Z,0
2017-03-24T03:39:10.164Z,0
2017-03-24T03:40:10.267Z,0
2017-03-24T03:41:10.271Z,0
2017-03-24T03:42:10.325Z,0
2017-03-24T03:43:10.377Z,0
2017-03-24T03:44:10.140Z,0
2017-03-24T03:45:10.485Z,0
2017-03-24T03:46:10.539Z,0
2017-03-24T03:47:10.593Z,0
2017-03-24T03:48:10.663Z,0
2017-03-24T03:49:10.703Z,0
2017-03-24T03:50:10.453Z,0
2017-03-24T03:51:10.810Z,0
2017-03-24T03:52:10.919Z,0
2017-03-24T03:53:10.922Z,0
2017-03-24T03:54:10.975Z,0
2017-03-24T03:55:10.723Z,0
2017-03-24T03:56:11.080Z,0
2017-03-24T03:57:11.137Z,0
2017-03-24T03:58:11.191Z,0
2017-03-24T03:59:11.248Z,0
2017-03-24T04:00:10.996Z,0
2017-03-24T04:01:11.352Z,0
2017-03-24T04:02:11.406Z,0
2017-03-24T04:03:11.459Z,0
2017-03-24T04:04:11.510Z,0
2017-03-24T04:05:11.570Z,0
2017-03-24T04:06:11.626Z,0
2017-03-24T04:07:11.676Z,0
2017-03-24T04:08:11.426Z,0
2017-03-24T04:09:11.783Z,0
2017-03-24T04:10:11.833Z,0
2017-03-24T04:11:11.890Z,0
2017-03-24T04:12:11.347Z,0
2017-03-24T04:13:11.401Z,0
2017-03-24T04:14:11.754Z,0
2017-03-24T04:15:12.115Z,0
2017-03-24T04:16:12.162Z,0
2017-03-24T04:17:12.216Z,0
2017-03-24T04:18:12.285Z,0
2017-03-24T04:19:12.334Z,0
2017-03-24T04:20:12.077Z,0
2017-03-24T04:21:12.438Z,0
2017-03-24T04:22:12.490Z,0
2017-03-24T04:23:12.541Z,0
2017-03-24T04:24:12.598Z,0
2017-03-24T04:25:12.652Z,0
2017-03-24T04:26:12.705Z,0
2017-03-24T04:27:12.756Z,0
2017-03-24T04:28:12.812Z,0
2017-03-24T04:29:12.877Z,0
2017-03-24T04:30:12.920Z,0
2017-03-24T04:31:12.671Z,0
2017-03-24T04:32:13.025Z,0
2017-03-24T04:33:13.082Z,0
2017-03-24T04:34:13.134Z,0
2017-03-24T04:35:13.187Z,0
2017-03-24T04:36:13.245Z,0
2017-03-24T04:37:13.306Z,0
2017-03-24T04:38:13.050Z,0
2017-03-24T04:39:13.404Z,0
2017-03-24T04:40:13.457Z,0
2017-03-24T04:41:13.518Z,0
2017-03-24T04:42:13.568Z,0
2017-03-24T04:43:13.629Z,0
2017-03-24T04:44:13.677Z,0
2017-03-24T04:45:13.732Z,0
2017-03-24T04:46:13.782Z,0
2017-03-24T04:47:13.842Z,0
2017-03-24T04:48:13.891Z,0
2017-03-24T04:49:13.946Z,0
2017-03-24T04:50:14.006Z,0
2017-03-24T04:51:14.052Z,0
2017-03-24T04:52:14.113Z,0
2017-03-24T04:53:14.162Z,0
2017-03-24T04:54:14.216Z,0
2017-03-24T04:55:14.270Z,0
2017-03-24T04:56:14.319Z,0
2017-03-24T04:57:14.380Z,4
2017-03-24T04:58:14.435Z,4
2017-03-24T04:59:14.489Z,0
2017-03-24T05:00:14.535Z,4
2017-03-24T05:01:14.596Z,4
2017-03-24T05:02:14.647Z,4
2017-03-24T05:03:14.709Z,4
2017-03-24T05:04:14.759Z,8
2017-03-24T05:05:14.809Z,8
2017-03-24T05:06:14.567Z,4
2017-03-24T05:07:14.620Z,8
2017-03-24T05:08:14.974Z,12
2017-03-24T05:09:15.033Z,8
2017-03-24T05:10:15.082Z,12
2017-03-24T05:11:15.140Z,12
2017-03-24T05:12:15.191Z,16
2017-03-24T05:13:15.247Z,16
2017-03-24T05:14:15.299Z,20
2017-03-24T05:15:15.352Z,20
2017-03-24T05:16:15.401Z,20
2017-03-24T05:17:15.157Z,28
2017-03-24T05:18:15.516Z,32
2017-03-24T05:19:15.572Z,32
2017-03-24T05:20:15.616Z,36
2017-03-24T05:21:15.675Z,36
2017-03-24T05:22:15.727Z,44
2017-03-24T05:23:15.790Z,44
2017-03-24T05:24:15.542Z,48
2017-03-24T05:25:15.891Z,48
2017-03-24T05:26:15.946Z,48
2017-03-24T05:27:15.696Z,48
2017-03-24T05:28:16.060Z,52
2017-03-24T05:29:16.113Z,56
2017-03-24T05:30:16.161Z,56
2017-03-24T05:31:16.260Z,60
2017-03-24T05:32:16.271Z,64
2017-03-24T05:33:16.335Z,64
2017-03-24T05:34:16.380Z,68
2017-03-24T05:35:16.435Z,68
2017-03-24T05:36:16.489Z,68
2017-03-24T05:37:16.541Z,72
2017-03-24T05:38:16.593Z,76
2017-03-24T05:39:16.656Z,76
2017-03-24T05:40:16.701Z,80
2017-03-24T05:41:16.769Z,84
2017-03-24T05:42:16.813Z,84
2017-03-24T05:43:16.866Z,88
2017-03-24T05:44:16.934Z,96
2017-03-24T05:45:16.973Z,100
2017-03-24T05:46:17.027Z,104
2017-03-24T05:47:17.083Z,116
2017-03-24T05:48:17.142Z,124
2017-03-24T05:49:17.191Z,140
2017-03-24T05:50:17.241Z,144
2017-03-24T05:51:17.300Z,152
2017-03-24T05:52:17.357Z,156
2017-03-24T05:53:17.407Z,160
2017-03-24T05:54:17.464Z,172
2017-03-24T05:55:17.516Z,188
2017-03-24T05:56:17.570Z,200
2017-03-24T05:57:17.627Z,220
2017-03-24T05:58:17.689Z,236
2017-03-24T05:59:17.735Z,248
2017-03-24T06:00:17.785Z,256
2017-03-24T06:01:17.843Z,260
2017-03-24T06:02:17.895Z,264
2017-03-24T06:03:17.953Z,268
2017-03-24T06:04:18.005Z,268
2017-03-24T06:05:18.062Z,272
2017-03-24T06:06:18.113Z,272
2017-03-24T06:07:18.167Z,276
2017-03-24T06:08:18.225Z,272
2017-03-24T06:09:18.281Z,280
2017-03-24T06:10:18.333Z,304
2017-03-24T06:11:18.389Z,312
2017-03-24T06:12:18.441Z,300
2017-03-24T06:13:18.506Z,300
2017-03-24T06:14:18.567Z,304
2017-03-24T06:15:18.599Z,324
2017-03-24T06:16:18.655Z,336
2017-03-24T06:17:18.709Z,312
2017-03-24T06:18:18.464Z,280
2017-03-24T06:19:18.819Z,264
2017-03-24T06:20:18.876Z,264
2017-03-24T06:21:18.623Z,268
2017-03-24T06:22:18.678Z,264
2017-03-24T06:23:19.040Z,264
2017-03-24T06:24:19.092Z,268
2017-03-24T06:25:19.041Z,268
2017-03-24T06:26:18.896Z,276
2017-03-24T06:27:19.254Z,280
2017-03-24T06:28:19.308Z,296
2017-03-24T06:29:33.005Z,308
2017-03-24T06:30:19.412Z,320
2017-03-24T06:31:19.469Z,332
2017-03-24T06:32:19.525Z,336
2017-03-24T06:33:19.580Z,340
2017-03-24T06:34:19.637Z,340
2017-03-24T06:35:19.685Z,340
2017-03-24T06:36:19.737Z,344
2017-03-24T06:37:19.792Z,356
2017-03-24T06:38:19.846Z,368
2017-03-24T06:39:19.901Z,384
2017-03-24T06:40:19.955Z,404
2017-03-24T06:41:19.998Z,428
2017-03-24T06:42:20.061Z,448
2017-03-24T06:43:20.112Z,460
2017-03-24T06:44:20.168Z,456
2017-03-24T06:45:20.213Z,452
2017-03-24T06:46:20.272Z,452
2017-03-24T06:47:20.322Z,452
2017-03-24T06:48:20.380Z,456
2017-03-24T06:49:20.426Z,460
2017-03-24T06:50:20.482Z,472
2017-03-24T06:51:20.533Z,480
2017-03-24T06:52:20.288Z,488
2017-03-24T06:53:20.339Z,488
2017-03-24T06:54:20.697Z,476
2017-03-24T06:55:20.745Z,464
2017-03-24T06:56:21.002Z,464
2017-03-24T06:57:20.560Z,464
2017-03-24T06:58:20.908Z,472
2017-03-24T06:59:20.658Z,480
2017-03-24T07:00:34.653Z,484
2017-03-24T07:01:21.065Z,484
2017-03-24T07:02:20.813Z,484
2017-03-24T07:03:21.173Z,488
2017-03-24T07:04:21.228Z,496
2017-03-24T07:05:20.880Z,504
2017-03-24T07:06:21.328Z,520
2017-03-24T07:07:21.084Z,524
2017-03-24T07:08:21.439Z,528
2017-03-24T07:09:21.191Z,532
2017-03-24T07:10:21.245Z,532
2017-03-24T07:11:21.597Z,536
2017-03-24T07:12:21.645Z,544
2017-03-24T07:13:21.711Z,560
2017-03-24T07:14:21.454Z,580
2017-03-24T07:15:21.813Z,592
2017-03-24T07:16:21.862Z,600
2017-03-24T07:17:21.916Z,608
2017-03-24T07:18:21.670Z,632
2017-03-24T07:19:22.022Z,656
2017-03-24T07:20:22.076Z,684
2017-03-24T07:21:22.130Z,708
2017-03-24T07:22:22.181Z,740
2017-03-24T07:23:21.942Z,776
2017-03-24T07:24:22.291Z,828
2017-03-24T07:25:21.735Z,868
2017-03-24T07:26:22.089Z,968
2017-03-24T07:27:22.447Z,1196
2017-03-24T07:28:22.507Z,1236
2017-03-24T07:29:22.560Z,1060
2017-03-24T07:30:22.609Z,1044
2017-03-24T07:31:22.355Z,1220
2017-03-24T07:32:22.717Z,1448
2017-03-24T07:33:22.768Z,1452
2017-03-24T07:34:22.823Z,1008
2017-03-24T07:35:22.878Z,984
2017-03-24T07:36:23.128Z,1008
2017-03-24T07:37:22.984Z,996
2017-03-24T07:38:23.036Z,968
2017-03-24T07:39:23.087Z,972
2017-03-24T07:40:23.137Z,972
2017-03-24T07:41:23.400Z,980
2017-03-24T07:42:37.875Z,932
2017-03-24T07:43:23.308Z,928
2017-03-24T07:44:23.363Z,932
2017-03-24T07:45:23.114Z,992
2017-03-24T07:46:23.457Z,916
2017-03-24T07:47:23.520Z,884
2017-03-24T07:48:23.270Z,936
2017-03-24T07:49:23.631Z,988
2017-03-24T07:50:23.372Z,916
2017-03-24T07:51:23.424Z,872
2017-03-24T07:52:23.180Z,872
2017-03-24T07:53:23.234Z,876
2017-03-24T07:54:23.895Z,876
2017-03-24T07:55:23.336Z,880
2017-03-24T07:56:23.991Z,900
2017-03-24T07:57:23.743Z,904
2017-03-24T07:58:24.100Z,900
2017-03-24T07:59:24.153Z,900
2017-03-24T08:00:23.901Z,896
2017-03-24T08:01:24.257Z,892
2017-03-24T08:02:24.315Z,920
2017-03-24T08:03:24.567Z,904
2017-03-24T08:04:24.425Z,908
2017-03-24T08:05:24.470Z,916
2017-03-24T08:06:24.223Z,948
2017-03-24T08:07:24.782Z,956
2017-03-24T08:08:24.632Z,968
2017-03-24T08:09:24.681Z,992
2017-03-24T08:10:24.738Z,1024
2017-03-24T08:11:24.835Z,1068
2017-03-24T08:12:38.377Z,1132
2017-03-24T08:13:24.896Z,1172
2017-03-24T08:14:24.949Z,1240
2017-03-24T08:15:25.004Z,1248
2017-03-24T08:16:25.060Z,1264
2017-03-24T08:17:25.516Z,1320
2017-03-24T08:18:25.161Z,1356
2017-03-24T08:19:25.219Z,1384
2017-03-24T08:20:25.271Z,1548
2017-03-24T08:21:25.329Z,1516
2017-03-24T08:22:25.382Z,1412
2017-03-24T08:23:25.426Z,1432
2017-03-24T08:24:25.480Z,1360
2017-03-24T08:25:25.546Z,1420
2017-03-24T08:26:25.597Z,1380
2017-03-24T08:27:25.642Z,1312
2017-03-24T08:28:25.695Z,1396
2017-03-24T08:29:25.748Z,1368
2017-03-24T08:30:25.802Z,1304
2017-03-24T08:31:25.855Z,1308
2017-03-24T08:32:25.912Z,1276
2017-03-24T08:33:25.962Z,1260
2017-03-24T08:34:26.015Z,1360
2017-03-24T08:35:26.071Z,1296
2017-03-24T08:36:26.120Z,1228
2017-03-24T08:37:26.171Z,1232
2017-03-24T08:38:26.231Z,1264
2017-03-24T08:39:26.281Z,1248
2017-03-24T08:40:26.337Z,1244
2017-03-24T08:41:26.387Z,1244
2017-03-24T08:42:26.441Z,1252
2017-03-24T08:43:26.493Z,1264
2017-03-24T08:44:26.547Z,1284
2017-03-24T08:45:26.598Z,1344
2017-03-24T08:46:26.652Z,1352
2017-03-24T08:47:40.089Z,1352
2017-03-24T08:48:40.136Z,1352
2017-03-24T08:49:26.815Z,1380
2017-03-24T08:50:26.870Z,1372
2017-03-24T08:51:26.620Z,1388
2017-03-24T08:52:26.675Z,1412
2017-03-24T08:53:27.240Z,1420
2017-03-24T08:54:27.079Z,1444
2017-03-24T08:55:27.143Z,1416
2017-03-24T08:56:27.185Z,1420
2017-03-24T08:57:26.943Z,1460
2017-03-24T08:58:27.292Z,1492
2017-03-24T08:59:27.347Z,1448
2017-03-24T09:00:27.399Z,1424
2017-03-24T09:01:27.456Z,1428
2017-03-24T09:02:27.206Z,1432
2017-03-24T09:03:27.261Z,1440
2017-03-24T09:04:27.314Z,1460
2017-03-24T09:05:27.362Z,1504
2017-03-24T09:06:27.720Z,1584
2017-03-24T09:07:27.775Z,1568
2017-03-24T09:08:27.824Z,1552
2017-03-24T09:09:27.878Z,1700
2017-03-24T09:10:27.932Z,1868
2017-03-24T09:11:27.982Z,1832
2017-03-24T09:12:28.035Z,2100
2017-03-24T09:13:28.091Z,1828
2017-03-24T09:14:27.843Z,1956
2017-03-24T09:15:28.399Z,1968
2017-03-24T09:16:28.250Z,2016
2017-03-24T09:17:28.302Z,1912
2017-03-24T09:18:28.358Z,2084
2017-03-24T09:19:28.318Z,1880
2017-03-24T09:20:28.466Z,1756
2017-03-24T09:21:28.520Z,1812
2017-03-24T09:22:28.572Z,1772
2017-03-24T09:23:42.021Z,1752
2017-03-24T09:24:28.678Z,1568
2017-03-24T09:25:28.935Z,1648
2017-03-24T09:26:28.780Z,1688
2017-03-24T09:27:28.841Z,1608
2017-03-24T09:28:28.893Z,1584
2017-03-24T09:29:28.944Z,1600
2017-03-24T09:30:28.994Z,1648
2017-03-24T09:31:28.753Z,1628
2017-03-24T09:32:29.107Z,1668
2017-03-24T09:33:29.162Z,1632
2017-03-24T09:34:29.218Z,1728
2017-03-24T09:35:29.264Z,1692
2017-03-24T09:36:29.319Z,1664
2017-03-24T09:37:29.371Z,1664
2017-03-24T09:38:29.425Z,1680
2017-03-24T09:39:29.476Z,1712
2017-03-24T09:40:29.532Z,1748
2017-03-24T09:41:29.587Z,1760
2017-03-24T09:42:29.637Z,1768
2017-03-24T09:43:29.691Z,1800
2017-03-24T09:44:29.448Z,1868
2017-03-24T09:45:29.796Z,2008
2017-03-24T09:46:29.853Z,1916
2017-03-24T09:47:29.906Z,1812
2017-03-24T09:48:29.956Z,1920
2017-03-24T09:49:30.013Z,1848
2017-03-24T09:50:30.068Z,1904
2017-03-24T09:51:30.122Z,1820
2017-03-24T09:52:30.180Z,1860
2017-03-24T09:53:30.222Z,1960
2017-03-24T09:54:30.275Z,2164
2017-03-24T09:55:30.333Z,1924
2017-03-24T09:56:30.385Z,1896
2017-03-24T09:57:30.136Z,1876
2017-03-24T09:58:30.488Z,1892
2017-03-24T09:59:30.545Z,1916
2017-03-24T10:00:30.602Z,2024
2017-03-24T10:01:30.651Z,2264
2017-03-24T10:02:30.710Z,2200
2017-03-24T10:03:30.757Z,2060
2017-03-24T10:04:30.812Z,2008
2017-03-24T10:05:30.565Z,2032
2017-03-24T10:06:30.920Z,1952
2017-03-24T10:07:30.672Z,1760
2017-03-24T10:08:31.022Z,1832
2017-03-24T10:09:31.118Z,1676
2017-03-24T10:10:31.133Z,1680
2017-03-24T10:11:31.187Z,1724
2017-03-24T10:12:31.241Z,1736
2017-03-24T10:13:31.289Z,1816
2017-03-24T10:14:31.041Z,2060
2017-03-24T10:15:31.401Z,2128
2017-03-24T10:16:31.452Z,2320
2017-03-24T10:17:31.511Z,3056
2017-03-24T10:18:31.560Z,2252
2017-03-24T10:19:31.614Z,2364
2017-03-24T10:20:31.673Z,2384
2017-03-24T10:21:31.418Z,2584
2017-03-24T10:22:31.484Z,2480
2017-03-24T10:23:31.826Z,2156
2017-03-24T10:24:31.883Z,2308
2017-03-24T10:25:31.632Z,2308
2017-03-24T10:26:31.690Z,2352
2017-03-24T10:27:32.042Z,2132
2017-03-24T10:28:32.097Z,1912
2017-03-24T10:29:32.154Z,1896
2017-03-24T10:30:31.903Z,1736
2017-03-24T10:31:32.253Z,1728
2017-03-24T10:32:32.316Z,1712
2017-03-24T10:33:32.362Z,1680
2017-03-24T10:34:32.413Z,1640
2017-03-24T10:35:32.477Z,1600
2017-03-24T10:36:32.525Z,1652
2017-03-24T10:37:32.583Z,1556
2017-03-24T10:38:32.332Z,1536
2017-03-24T10:39:32.682Z,1516
2017-03-24T10:40:32.740Z,1512
2017-03-24T10:41:32.796Z,1536
2017-03-24T10:42:32.850Z,1564
2017-03-24T10:43:32.899Z,1644
2017-03-24T10:44:32.650Z,1744
2017-03-24T10:45:33.003Z,1848
2017-03-24T10:46:33.063Z,1928
2017-03-24T10:47:33.114Z,1964
2017-03-24T10:48:33.163Z,2168
2017-03-24T10:49:32.916Z,2260
2017-03-24T10:50:32.978Z,2216
2017-03-24T10:51:33.325Z,2236
2017-03-24T10:52:33.078Z,2200
2017-03-24T10:53:33.436Z,1944
2017-03-24T10:54:33.490Z,1952
2017-03-24T10:55:33.544Z,1892
2017-03-24T10:56:33.594Z,1888
2017-03-24T10:57:33.867Z,1848
2017-03-24T10:58:33.705Z,1852
2017-03-24T10:59:33.452Z,1976
2017-03-24T11:00:33.805Z,2112
2017-03-24T11:01:33.869Z,2520
2017-03-24T11:02:33.913Z,2452
2017-03-24T11:03:33.970Z,2484
2017-03-24T11:04:34.022Z,2544
2017-03-24T11:05:34.077Z,2764
2017-03-24T11:06:34.126Z,2772
2017-03-24T11:07:34.182Z,2820
2017-03-24T11:08:34.240Z,3180
2017-03-24T11:09:33.988Z,3348
2017-03-24T11:10:34.346Z,3532
2017-03-24T11:11:34.398Z,3764
2017-03-24T11:12:34.451Z,4076
2017-03-24T11:13:34.500Z,3716
2017-03-24T11:14:34.559Z,3284
2017-03-24T11:15:34.307Z,3112
2017-03-24T11:16:34.666Z,3248
2017-03-24T11:17:34.713Z,3136
2017-03-24T11:18:34.772Z,3156
2017-03-24T11:19:34.825Z,3244
2017-03-24T11:20:34.882Z,3184
2017-03-24T11:21:34.927Z,3020
2017-03-24T11:22:34.987Z,2784
2017-03-24T11:23:34.735Z,3524
2017-03-24T11:24:34.487Z,4744
2017-03-24T11:25:35.146Z,3664
2017-03-24T11:26:34.897Z,2392
2017-03-24T11:27:34.647Z,2408
2017-03-24T11:28:35.043Z,2428
2017-03-24T11:29:35.358Z,2164
2017-03-24T11:30:35.409Z,1924
2017-03-24T11:31:35.473Z,1656
2017-03-24T11:32:35.529Z,1556
2017-03-24T11:33:35.578Z,1540
2017-03-24T11:34:35.640Z,1460
2017-03-24T11:35:35.681Z,1372
2017-03-24T11:36:35.734Z,1364
2017-03-24T11:37:35.789Z,1316
2017-03-24T11:38:35.840Z,1340
2017-03-24T11:39:35.892Z,1288
2017-03-24T11:40:35.946Z,1264
2017-03-24T11:41:36.003Z,1264
2017-03-24T11:42:36.060Z,1240
2017-03-24T11:43:35.805Z,1228
2017-03-24T11:44:35.858Z,1216
2017-03-24T11:45:35.916Z,1216
2017-03-24T11:46:35.968Z,1204
2017-03-24T11:47:36.325Z,1196
2017-03-24T11:48:36.379Z,1192
2017-03-24T11:49:36.429Z,1192
2017-03-24T11:50:36.484Z,1192
2017-03-24T11:51:36.244Z,1200
2017-03-24T11:52:36.292Z,1212
2017-03-24T11:53:36.343Z,1236
2017-03-24T11:54:36.397Z,1264
2017-03-24T11:55:36.750Z,1292
2017-03-24T11:56:36.803Z,1328
2017-03-24T11:57:36.858Z,1348
2017-03-24T11:58:36.914Z,1384
2017-03-24T11:59:36.663Z,1420
2017-03-24T12:00:36.415Z,1408
2017-03-24T12:01:37.078Z,1388
2017-03-24T12:02:36.822Z,1368
2017-03-24T12:03:37.176Z,1344
2017-03-24T12:04:37.232Z,1320
2017-03-24T12:05:37.287Z,1308
2017-03-24T12:06:37.043Z,1292
2017-03-24T12:07:37.093Z,1288
2017-03-24T12:08:37.150Z,1288
2017-03-24T12:09:37.198Z,1296
2017-03-24T12:10:37.252Z,1304
2017-03-24T12:11:37.610Z,1284
2017-03-24T12:12:37.658Z,1268
2017-03-24T12:13:37.109Z,1204
2017-03-24T12:14:37.768Z,1208
2017-03-24T12:15:37.523Z,1228
2017-03-24T12:16:37.877Z,1252
2017-03-24T12:17:37.933Z,1308
2017-03-24T12:18:37.980Z,1320
2017-03-24T12:19:38.034Z,1328
2017-03-24T12:20:38.090Z,1332
2017-03-24T12:21:37.839Z,1336
2017-03-24T12:22:37.894Z,1352
2017-03-24T12:23:38.248Z,1356
2017-03-24T12:24:38.302Z,1372
2017-03-24T12:25:38.364Z,1368
2017-03-24T12:26:38.418Z,1392
2017-03-24T12:27:38.466Z,1436
2017-03-24T12:28:38.219Z,1492
2017-03-24T12:29:38.268Z,1608
2017-03-24T12:30:38.637Z,1820
2017-03-24T12:31:38.374Z,2156
2017-03-24T12:32:38.730Z,3092
2017-03-24T12:33:38.790Z,3024
2017-03-24T12:34:38.535Z,2652
2017-03-24T12:35:38.589Z,2480
2017-03-24T12:36:38.947Z,2780
2017-03-24T12:37:39.007Z,2412
2017-03-24T12:38:38.748Z,2192
2017-03-24T12:39:39.109Z,2184
2017-03-24T12:40:38.856Z,2272
2017-03-24T12:41:38.909Z,1920
2017-03-24T12:42:38.962Z,1652
2017-03-24T12:43:39.324Z,1488
2017-03-24T12:44:39.368Z,1452
2017-03-24T12:45:39.429Z,1444
2017-03-24T12:46:39.481Z,1456
2017-03-24T12:47:39.535Z,1432
2017-03-24T12:48:39.596Z,1404
2017-03-24T12:49:39.036Z,1400
2017-03-24T12:50:39.394Z,1340
2017-03-24T12:51:39.145Z,1248
2017-03-24T12:52:39.502Z,1200
2017-03-24T12:53:39.562Z,1180
2017-03-24T12:54:39.914Z,1164
2017-03-24T12:55:39.665Z,1164
2017-03-24T12:56:40.023Z,1172
2017-03-24T12:57:40.076Z,1188
2017-03-24T12:58:40.120Z,1216
2017-03-24T12:59:40.177Z,1252
2017-03-24T13:00:39.930Z,1308
2017-03-24T13:01:40.013Z,1360
2017-03-24T13:02:40.033Z,1432
2017-03-24T13:03:40.123Z,1484
2017-03-24T13:04:40.453Z,1544
2017-03-24T13:05:40.500Z,1616
2017-03-24T13:06:40.557Z,1720
2017-03-24T13:07:40.001Z,1880
2017-03-24T13:08:40.355Z,2016
2017-03-24T13:09:40.407Z,2328
2017-03-24T13:10:40.465Z,2768
2017-03-24T13:11:40.523Z,3444
2017-03-24T13:12:40.571Z,3224
2017-03-24T13:13:40.926Z,3268
2017-03-24T13:14:40.679Z,2780
2017-03-24T13:15:40.731Z,2524
2017-03-24T13:16:41.089Z,2268
2017-03-24T13:17:41.139Z,2504
2017-03-24T13:18:41.196Z,2944
2017-03-24T13:19:40.948Z,2536
2017-03-24T13:20:40.997Z,2088
2017-03-24T13:21:41.359Z,2108
2017-03-24T13:22:41.403Z,2000
2017-03-24T13:23:41.458Z,1896
2017-03-24T13:24:41.517Z,1792
2017-03-24T13:25:41.565Z,1812
2017-03-24T13:26:41.622Z,1868
2017-03-24T13:27:41.375Z,1924
2017-03-24T13:28:41.428Z,1936
2017-03-24T13:29:41.484Z,1984
2017-03-24T13:30:41.833Z,2044
2017-03-24T13:31:41.593Z,2008
2017-03-24T13:32:41.644Z,2060
2017-03-24T13:33:41.691Z,2060
2017-03-24T13:34:42.044Z,2176
2017-03-24T13:35:41.801Z,2504
2017-03-24T13:36:42.160Z,2708
2017-03-24T13:37:42.208Z,2624
2017-03-24T13:38:42.264Z,2456
2017-03-24T13:39:42.314Z,2344
2017-03-24T13:40:42.367Z,2252
2017-03-24T13:41:42.423Z,2208
2017-03-24T13:42:42.481Z,2180
2017-03-24T13:43:42.528Z,2156
2017-03-24T13:44:42.584Z,2128
2017-03-24T13:45:42.643Z,2084
2017-03-24T13:46:42.699Z,2008
2017-03-24T13:47:42.745Z,1944
2017-03-24T13:48:42.795Z,1876
2017-03-24T13:49:42.858Z,1792
2017-03-24T13:50:42.604Z,1724
2017-03-24T13:51:42.956Z,1672
2017-03-24T13:52:43.012Z,1652
2017-03-24T13:53:42.762Z,1628
2017-03-24T13:54:43.120Z,1588
2017-03-24T13:55:42.869Z,1584
2017-03-24T13:56:42.922Z,1596
2017-03-24T13:57:43.284Z,1620